createdAt,value
2018-04-08T00:00:14.165Z,49.37
2018-04-08T00:02:41.560Z,49.42
2018-04-08T00:05:08.943Z,49.07
2018-04-08T00:07:36.325Z,49.25
2018-04-08T00:10:03.716Z,49.37
2018-04-08T00:12:31.096Z,49.57
2018-04-08T00:14:58.488Z,49.37
2018-04-08T00:17:25.871Z,49.28
2018-04-08T00:19:53.256Z,49.11
2018-04-08T00:22:20.644Z,49.26
2018-04-08T00:24:48.036Z,49.02
2018-04-08T00:27:15.415Z,49.26
2018-04-08T00:29:42.860Z,49.53
2018-04-08T00:32:10.244Z,49.25
2018-04-08T00:34:37.632Z,49.13
2018-04-08T00:37:05.077Z,49.76
2018-04-08T00:39:32.464Z,49.69
2018-04-08T00:41:59.876Z,49.78
2018-04-08T00:44:27.261Z,49.92
2018-04-08T00:46:54.632Z,49.83
2018-04-08T00:49:22.108Z,49.84
2018-04-08T00:51:49.496Z,50.06
2018-04-08T00:54:28.784Z,50.59
2018-04-08T00:56:56.169Z,50.51
2018-04-08T00:59:23.557Z,50.20
2018-04-08T01:01:51.674Z,50.66
2018-04-08T01:04:19.067Z,50.81
2018-04-08T01:06:46.459Z,50.84
2018-04-08T01:09:13.976Z,51.30
2018-04-08T01:11:41.360Z,50.53
2018-04-08T01:14:08.749Z,50.40
2018-04-08T01:16:36.136Z,50.26
2018-04-08T01:19:03.520Z,50.94
2018-04-08T01:21:30.916Z,50.46
2018-04-08T01:23:58.296Z,50.18
2018-04-08T01:26:25.695Z,50.31
2018-04-08T01:28:53.077Z,50.68
2018-04-08T01:31:20.468Z,50.81
2018-04-08T01:33:47.843Z,51.11
2018-04-08T01:36:15.234Z,51.48
2018-04-08T01:38:42.628Z,52.12
2018-04-08T01:41:10.005Z,51.64
2018-04-08T01:43:37.408Z,52.25
2018-04-08T01:46:04.785Z,51.03
2018-04-08T01:48:32.180Z,51.03
2018-04-08T01:50:59.561Z,51.61
2018-04-08T01:53:26.952Z,52.27
2018-04-08T01:55:54.336Z,52.45
2018-04-08T01:58:21.725Z,52.48
2018-04-08T02:00:49.104Z,53.31
2018-04-08T02:03:16.601Z,52.67
2018-04-08T02:05:43.991Z,53.62
2018-04-08T02:08:11.372Z,54.11
2018-04-08T02:10:38.764Z,53.85
2018-04-08T02:13:06.140Z,53.95
2018-04-08T02:15:33.528Z,54.21
2018-04-08T02:18:00.920Z,54.84
2018-04-08T02:20:28.329Z,55.13
2018-04-08T02:22:55.708Z,55.32
2018-04-08T02:25:23.100Z,55.06
2018-04-08T02:27:50.488Z,54.65
2018-04-08T02:30:17.874Z,54.65
2018-04-08T02:32:45.264Z,54.73
2018-04-08T02:35:12.648Z,53.46
2018-04-08T02:37:40.038Z,53.67
2018-04-08T02:40:07.432Z,54.04
2018-04-08T02:42:34.812Z,53.83
2018-04-08T02:45:02.205Z,53.88
2018-04-08T02:47:29.594Z,53.46
2018-04-08T02:49:56.981Z,53.34
2018-04-08T02:52:24.369Z,53.17
2018-04-08T02:54:51.751Z,53.20
2018-04-08T02:57:19.136Z,53.07
2018-04-08T02:59:46.524Z,53.33
2018-04-08T03:02:13.945Z,53.10
2018-04-08T03:04:41.346Z,53.11
2018-04-08T03:07:08.720Z,52.79
2018-04-08T03:09:36.106Z,52.37
2018-04-08T03:12:03.489Z,53.06
2018-04-08T03:14:31.016Z,53.05
2018-04-08T03:16:58.401Z,53.15
2018-04-08T03:19:25.861Z,53.40
2018-04-08T03:21:53.252Z,53.91
2018-04-08T03:24:20.636Z,53.86
2018-04-08T03:26:48.040Z,53.69
2018-04-08T03:29:15.419Z,52.06
2018-04-08T03:31:43.168Z,51.03
2018-04-08T03:34:10.548Z,50.79
2018-04-08T03:36:37.936Z,51.00
2018-04-08T03:39:06.221Z,50.53
2018-04-08T03:41:33.611Z,49.52
2018-04-08T03:44:00.999Z,49.70
2018-04-08T03:46:28.388Z,49.66
2018-04-08T03:48:56.112Z,49.77
2018-04-08T03:51:23.491Z,49.63
2018-04-08T03:53:50.884Z,49.32
2018-04-08T03:56:18.268Z,49.25
2018-04-08T03:58:45.656Z,49.49
2018-04-08T04:01:13.036Z,49.13
2018-04-08T04:03:40.421Z,49.21
2018-04-08T04:06:07.805Z,49.29
2018-04-08T04:08:35.196Z,48.99
2018-04-08T04:11:02.592Z,49.18
2018-04-08T04:13:29.976Z,49.35
2018-04-08T04:15:57.360Z,49.41
2018-04-08T04:18:36.560Z,49.09
2018-04-08T04:21:15.841Z,49.15
2018-04-08T04:23:55.011Z,49.59
2018-04-08T04:26:31.148Z,49.91
2018-04-08T04:28:58.536Z,49.61
2018-04-08T04:31:25.927Z,50.64
2018-04-08T04:33:53.308Z,51.02
2018-04-08T04:36:20.700Z,51.60
2018-04-08T04:38:48.081Z,52.12
2018-04-08T04:41:15.479Z,51.86
2018-04-08T04:43:42.856Z,52.55
2018-04-08T04:46:10.248Z,51.56
2018-04-08T04:48:37.637Z,51.35
2018-04-08T04:51:05.023Z,50.93
2018-04-08T04:53:32.537Z,51.22
2018-04-08T04:55:59.920Z,51.20
2018-04-08T04:58:27.312Z,50.81
2018-04-08T05:00:54.773Z,50.71
2018-04-08T05:03:22.164Z,51.29
2018-04-08T05:05:49.549Z,51.03
2018-04-08T05:08:16.996Z,50.67
2018-04-08T05:10:44.448Z,50.38
2018-04-08T05:13:11.832Z,50.35
2018-04-08T05:15:39.212Z,49.86
2018-04-08T05:18:06.601Z,49.82
2018-04-08T05:20:39.702Z,50.00
2018-04-08T05:23:07.090Z,49.66
2018-04-08T05:25:34.482Z,50.57
2018-04-08T05:28:01.865Z,49.98
2018-04-08T05:30:29.261Z,49.86
2018-04-08T05:32:56.646Z,50.11
2018-04-08T05:35:24.041Z,50.15
2018-04-08T05:37:51.429Z,50.23
2018-04-08T05:40:18.854Z,51.95
2018-04-08T05:42:46.305Z,52.03
2018-04-08T05:45:13.755Z,52.14
2018-04-08T05:47:41.152Z,51.17
2018-04-08T05:50:08.536Z,52.00
2018-04-08T05:52:35.944Z,51.57
2018-04-08T05:55:03.320Z,50.70
2018-04-08T05:57:30.704Z,51.60
2018-04-08T05:59:58.108Z,51.42
2018-04-08T06:02:25.504Z,51.82
2018-04-08T06:04:52.884Z,52.57
2018-04-08T06:07:20.276Z,53.38
2018-04-08T06:09:47.685Z,51.78
2018-04-08T06:12:15.112Z,51.37
2018-04-08T06:14:42.497Z,51.58
2018-04-08T06:17:09.912Z,50.89
2018-04-08T06:19:37.301Z,50.15
2018-04-08T06:22:04.689Z,49.79
2018-04-08T06:24:32.081Z,50.80
2018-04-08T06:26:59.461Z,49.82
2018-04-08T06:29:26.906Z,51.31
2018-04-08T06:31:54.292Z,50.23
2018-04-08T06:34:21.700Z,49.51
2018-04-08T06:36:49.088Z,48.82
2018-04-08T06:39:16.473Z,49.16
2018-04-08T06:41:43.861Z,48.49
2018-04-08T06:44:11.240Z,48.75
2018-04-08T06:46:38.650Z,48.33
2018-04-08T06:49:06.032Z,47.08
2018-04-08T06:51:33.422Z,47.79
2018-04-08T06:54:00.811Z,46.82
2018-04-08T06:56:28.272Z,48.19
2018-04-08T06:58:55.649Z,47.14
2018-04-08T07:01:23.079Z,47.63
2018-04-08T07:03:50.452Z,46.36
2018-04-08T07:06:17.836Z,45.06
2018-04-08T07:08:45.227Z,45.42
2018-04-08T07:11:12.612Z,45.12
2018-04-08T07:13:40.001Z,44.01
2018-04-08T07:16:07.466Z,43.81
2018-04-08T07:18:34.878Z,43.44
2018-04-08T07:21:02.237Z,43.83
2018-04-08T07:23:29.665Z,42.69
2018-04-08T07:25:57.012Z,43.51
2018-04-08T07:28:24.410Z,41.74
2018-04-08T07:30:51.793Z,43.50
2018-04-08T07:33:19.173Z,42.49
2018-04-08T07:35:46.573Z,42.91
2018-04-08T07:38:13.949Z,41.78
2018-04-08T07:40:41.351Z,41.79
2018-04-08T07:43:08.735Z,41.46
2018-04-08T07:45:36.124Z,41.96
2018-04-08T07:48:03.511Z,42.08
2018-04-08T07:50:30.909Z,42.24
2018-04-08T07:52:58.288Z,42.11
2018-04-08T07:55:25.668Z,40.46
2018-04-08T07:57:53.061Z,39.83
2018-04-08T08:00:20.456Z,41.22
2018-04-08T08:02:47.840Z,41.54
2018-04-08T08:05:15.228Z,41.55
2018-04-08T08:07:42.616Z,41.07
2018-04-08T08:10:09.997Z,41.82
2018-04-08T08:12:37.392Z,40.94
2018-04-08T08:15:04.776Z,41.55
2018-04-08T08:17:32.164Z,40.89
2018-04-08T08:19:59.552Z,41.57
2018-04-08T08:22:26.956Z,41.77
2018-04-08T08:24:54.349Z,42.37
2018-04-08T08:27:21.732Z,42.40
2018-04-08T08:29:49.130Z,41.10
2018-04-08T08:32:16.540Z,41.42
2018-04-08T08:34:44.034Z,43.26
2018-04-08T08:37:11.440Z,42.50
2018-04-08T08:39:39.129Z,42.65
2018-04-08T08:42:06.516Z,42.16
2018-04-08T08:44:33.896Z,41.36
2018-04-08T08:47:01.311Z,40.56
2018-04-08T08:49:28.688Z,39.73
2018-04-08T08:51:56.080Z,39.94
2018-04-08T08:54:23.476Z,39.56
2018-04-08T08:56:50.862Z,40.76
2018-04-08T08:59:18.252Z,39.82
2018-04-08T09:01:45.642Z,40.39
2018-04-08T09:04:13.034Z,40.02
2018-04-08T09:06:40.494Z,39.35
2018-04-08T09:09:07.974Z,38.24
2018-04-08T09:11:35.347Z,41.13
2018-04-08T09:14:02.744Z,40.94
2018-04-08T09:16:30.122Z,37.11
2018-04-08T09:19:00.013Z,39.52
2018-04-08T09:21:32.919Z,38.95
2018-04-08T09:24:02.825Z,38.26
2018-04-08T09:26:30.220Z,38.65
2018-04-08T09:28:57.617Z,38.83
2018-04-08T09:31:24.989Z,38.48
2018-04-08T09:33:52.406Z,41.25
2018-04-08T09:36:19.868Z,39.39
2018-04-08T09:38:47.216Z,39.56
2018-04-08T09:41:14.848Z,38.54
2018-04-08T09:43:42.269Z,40.02
2018-04-08T09:46:10.933Z,38.12
2018-04-08T09:48:38.354Z,38.42
2018-04-08T09:51:05.785Z,40.24
2018-04-08T09:53:33.169Z,38.41
2018-04-08T09:56:00.833Z,37.17
2018-04-08T09:58:38.923Z,37.46
2018-04-08T10:01:26.969Z,36.58
2018-04-08T10:03:54.348Z,35.91
2018-04-08T10:06:21.749Z,37.41
2018-04-08T10:08:49.141Z,39.32
2018-04-08T10:11:16.922Z,36.61
2018-04-08T10:13:44.309Z,36.34
2018-04-08T10:16:11.696Z,34.02
2018-04-08T10:18:39.092Z,33.64
2018-04-08T10:21:06.484Z,34.12
2018-04-08T10:23:33.880Z,34.58
2018-04-08T10:26:01.280Z,33.77
2018-04-08T10:28:28.714Z,34.08
2018-04-08T10:30:56.136Z,32.31
2018-04-08T10:33:23.847Z,30.73
2018-04-08T10:35:51.221Z,33.51
2018-04-08T10:38:18.676Z,31.98
2018-04-08T10:40:46.040Z,31.51
2018-04-08T10:43:13.503Z,28.65
2018-04-08T10:45:40.892Z,29.24
2018-04-08T10:48:08.297Z,28.57
2018-04-08T10:50:38.443Z,28.32
2018-04-08T10:53:05.829Z,26.92
2018-04-08T10:55:33.241Z,29.21
2018-04-08T10:58:00.623Z,26.36
2018-04-08T11:00:28.012Z,28.89
2018-04-08T11:02:55.453Z,26.19
2018-04-08T11:05:22.856Z,27.58
2018-04-08T11:07:50.253Z,26.62
2018-04-08T11:10:17.649Z,27.37
2018-04-08T11:12:45.049Z,26.65
2018-04-08T11:15:12.438Z,25.50
2018-04-08T11:17:39.824Z,25.60
2018-04-08T11:20:07.204Z,25.63
2018-04-08T11:22:34.619Z,26.45
2018-04-08T11:25:01.981Z,26.83
2018-04-08T11:27:29.388Z,24.73
2018-04-08T11:29:56.756Z,26.29
2018-04-08T11:32:24.140Z,25.37
2018-04-08T11:34:51.528Z,25.48
2018-04-08T11:37:18.917Z,25.62
2018-04-08T11:39:46.309Z,24.74
2018-04-08T11:42:13.688Z,23.43
2018-04-08T11:44:41.073Z,26.55
2018-04-08T11:47:08.465Z,23.62
2018-04-08T11:49:35.840Z,22.90
2018-04-08T11:52:03.251Z,23.47
2018-04-08T11:54:30.669Z,23.10
2018-04-08T11:56:58.061Z,23.03
2018-04-08T11:59:25.448Z,23.60
2018-04-08T12:01:52.833Z,26.77
2018-04-08T12:04:20.216Z,26.10
2018-04-08T12:06:47.604Z,27.54
2018-04-08T12:09:14.997Z,26.01
2018-04-08T12:11:42.380Z,25.05
2018-04-08T12:14:09.776Z,26.76
2018-04-08T12:16:37.165Z,24.47
2018-04-08T12:19:04.544Z,24.62
2018-04-08T12:21:31.935Z,25.21
2018-04-08T12:23:59.323Z,25.15
2018-04-08T12:26:29.525Z,25.69
2018-04-08T12:28:56.900Z,25.08
2018-04-08T12:31:24.331Z,26.19
2018-04-08T12:33:51.677Z,25.33
2018-04-08T12:36:19.061Z,25.40
2018-04-08T12:38:46.456Z,24.75
2018-04-08T12:41:13.837Z,25.04
2018-04-08T12:43:41.233Z,24.74
2018-04-08T12:46:08.835Z,24.01
2018-04-08T12:48:36.217Z,24.14
2018-04-08T12:51:03.609Z,24.45
2018-04-08T12:53:30.996Z,28.09
2018-04-08T12:55:58.380Z,26.57
2018-04-08T12:58:25.761Z,26.94
2018-04-08T13:00:53.156Z,26.17
2018-04-08T13:03:20.540Z,26.61
2018-04-08T13:05:47.924Z,24.54
2018-04-08T13:08:15.317Z,26.12
2018-04-08T13:10:42.705Z,25.99
2018-04-08T13:13:10.092Z,25.58
2018-04-08T13:15:37.476Z,24.30
2018-04-08T13:18:04.868Z,27.05
2018-04-08T13:20:32.255Z,27.24
2018-04-08T13:22:59.640Z,26.61
2018-04-08T13:25:28.504Z,25.64
2018-04-08T13:27:55.888Z,26.25
2018-04-08T13:30:23.285Z,25.37
2018-04-08T13:32:50.668Z,25.43
2018-04-08T13:35:18.056Z,26.45
2018-04-08T13:37:45.440Z,22.81
2018-04-08T13:40:12.825Z,24.29
2018-04-08T13:42:40.228Z,24.65
2018-04-08T13:45:07.613Z,25.92
2018-04-08T13:47:35.025Z,25.46
2018-04-08T13:50:02.412Z,23.64
2018-04-08T13:52:29.800Z,24.54
2018-04-08T13:54:57.194Z,27.52
2018-04-08T13:57:24.581Z,26.46
2018-04-08T13:59:52.384Z,25.41
2018-04-08T14:02:19.770Z,26.73
2018-04-08T14:04:47.300Z,25.14
2018-04-08T14:07:14.693Z,25.08
2018-04-08T14:09:42.083Z,24.18
2018-04-08T14:12:09.501Z,25.23
2018-04-08T14:14:36.884Z,26.05
2018-04-08T14:17:04.268Z,24.63
2018-04-08T14:19:31.664Z,24.38
2018-04-08T14:21:59.048Z,23.79
2018-04-08T14:24:26.473Z,24.29
2018-04-08T14:26:53.852Z,24.71
2018-04-08T14:29:21.244Z,24.49
2018-04-08T14:31:48.636Z,24.07
2018-04-08T14:34:16.017Z,25.34
2018-04-08T14:36:43.416Z,25.75
2018-04-08T14:39:10.792Z,23.87
2018-04-08T14:41:38.175Z,24.63
2018-04-08T14:44:05.572Z,25.79
2018-04-08T14:46:33.010Z,25.88
2018-04-08T14:49:00.360Z,24.96
2018-04-08T14:51:27.745Z,24.75
2018-04-08T14:53:55.140Z,25.73
2018-04-08T14:56:22.673Z,23.79
2018-04-08T14:58:50.061Z,26.93
2018-04-08T15:01:17.454Z,25.25
2018-04-08T15:03:44.833Z,24.70
2018-04-08T15:06:12.224Z,23.32
2018-04-08T15:08:39.610Z,24.82
2018-04-08T15:11:06.992Z,23.87
2018-04-08T15:13:34.394Z,22.99
2018-04-08T15:16:01.769Z,24.65
2018-04-08T15:18:29.186Z,22.91
2018-04-08T15:20:56.566Z,23.81
2018-04-08T15:23:23.957Z,23.75
2018-04-08T15:25:51.345Z,25.13
2018-04-08T15:28:18.724Z,24.13
2018-04-08T15:30:46.132Z,25.44
2018-04-08T15:33:13.524Z,26.08
2018-04-08T15:35:40.908Z,26.22
2018-04-08T15:38:08.296Z,24.77
2018-04-08T15:40:35.679Z,24.87
2018-04-08T15:43:03.091Z,25.78
2018-04-08T15:45:30.476Z,24.74
2018-04-08T15:47:57.861Z,25.34
2018-04-08T15:50:25.576Z,26.81
2018-04-08T15:52:52.964Z,26.62
2018-04-08T15:55:20.363Z,26.40
2018-04-08T15:57:47.740Z,25.47
2018-04-08T16:00:15.132Z,27.05
2018-04-08T16:02:42.528Z,27.86
2018-04-08T16:05:09.915Z,25.85
2018-04-08T16:07:37.307Z,26.08
2018-04-08T16:10:04.692Z,26.36
2018-04-08T16:12:32.073Z,25.94
2018-04-08T16:14:59.471Z,27.11
2018-04-08T16:17:26.853Z,28.74
2018-04-08T16:19:54.309Z,29.14
2018-04-08T16:22:21.709Z,27.65
2018-04-08T16:24:49.086Z,27.59
2018-04-08T16:27:16.469Z,29.33
2018-04-08T16:29:43.852Z,30.07
2018-04-08T16:32:11.257Z,30.78
2018-04-08T16:34:38.646Z,29.40
2018-04-08T16:37:06.032Z,27.39
2018-04-08T16:39:33.435Z,27.34
2018-04-08T16:42:00.988Z,28.67
2018-04-08T16:44:28.383Z,28.07
2018-04-08T16:46:55.761Z,29.87
2018-04-08T16:49:23.155Z,29.97
2018-04-08T16:51:50.547Z,30.04
2018-04-08T16:54:17.925Z,31.63
2018-04-08T16:56:45.336Z,31.35
2018-04-08T16:59:12.772Z,30.31
2018-04-08T17:01:40.120Z,30.32
2018-04-08T17:04:07.507Z,31.44
2018-04-08T17:06:34.898Z,32.76
2018-04-08T17:09:02.305Z,32.26
2018-04-08T17:11:29.692Z,33.21
2018-04-08T17:13:57.121Z,34.01
2018-04-08T17:16:24.528Z,34.64
2018-04-08T17:18:51.918Z,36.21
2018-04-08T17:21:20.285Z,32.20
2018-04-08T17:23:47.672Z,33.96
2018-04-08T17:26:15.061Z,34.48
2018-04-08T17:28:42.968Z,33.88
2018-04-08T17:31:10.347Z,33.76
2018-04-08T17:33:38.005Z,34.45
2018-04-08T17:36:05.398Z,32.89
2018-04-08T17:38:32.914Z,35.00
2018-04-08T17:41:00.300Z,34.00
2018-04-08T17:43:27.777Z,33.84
2018-04-08T17:45:55.158Z,34.28
2018-04-08T17:48:22.544Z,34.57
2018-04-08T17:50:50.269Z,35.72
2018-04-08T17:53:17.657Z,36.24
2018-04-08T17:55:45.042Z,35.85
2018-04-08T17:58:12.453Z,35.57
2018-04-08T18:00:39.866Z,36.76
2018-04-08T18:03:07.245Z,37.22
2018-04-08T18:05:34.649Z,37.11
2018-04-08T18:08:02.198Z,35.75
2018-04-08T18:10:29.655Z,35.52
2018-04-08T18:12:57.039Z,35.76
2018-04-08T18:15:24.434Z,36.10
2018-04-08T18:17:51.819Z,36.84
2018-04-08T18:20:19.365Z,36.37
2018-04-08T18:22:46.756Z,36.79
2018-04-08T18:25:14.138Z,37.99
2018-04-08T18:27:41.541Z,38.79
2018-04-08T18:30:08.921Z,40.43
2018-04-08T18:32:36.471Z,38.91
2018-04-08T18:35:03.968Z,39.41
2018-04-08T18:37:31.386Z,40.80
2018-04-08T18:39:58.805Z,40.39
2018-04-08T18:42:26.204Z,40.53
2018-04-08T18:44:53.598Z,40.79
2018-04-08T18:47:21.005Z,40.76
2018-04-08T18:49:48.404Z,41.18
2018-04-08T18:52:15.784Z,41.28
2018-04-08T18:54:43.178Z,41.41
2018-04-08T18:57:10.564Z,41.74
2018-04-08T18:59:38.026Z,42.16
2018-04-08T19:02:05.411Z,41.22
2018-04-08T19:04:32.812Z,42.07
2018-04-08T19:07:00.202Z,42.37
2018-04-08T19:09:27.587Z,43.75
2018-04-08T19:11:55.326Z,42.70
2018-04-08T19:14:22.721Z,42.63
2018-04-08T19:16:50.116Z,41.74
2018-04-08T19:19:17.500Z,44.21
2018-04-08T19:21:44.893Z,45.79
2018-04-08T19:24:12.282Z,42.67
2018-04-08T19:26:39.660Z,40.56
2018-04-08T19:29:07.042Z,40.51
2018-04-08T19:31:34.428Z,39.83
2018-04-08T19:34:01.819Z,40.67
2018-04-08T19:36:29.211Z,42.59
2018-04-08T19:38:56.628Z,44.42
2018-04-08T19:41:24.048Z,45.21
2018-04-08T19:43:51.434Z,45.66
2018-04-08T19:46:18.821Z,46.86
2018-04-08T19:48:46.222Z,43.96
2018-04-08T19:51:13.977Z,42.24
2018-04-08T19:53:41.361Z,43.85
2018-04-08T19:56:08.817Z,43.88
2018-04-08T19:58:36.283Z,42.98
2018-04-08T20:01:03.641Z,43.71
2018-04-08T20:03:31.021Z,43.29
2018-04-08T20:05:58.406Z,43.52
2018-04-08T20:08:25.796Z,43.16
2018-04-08T20:10:53.181Z,42.97
2018-04-08T20:13:20.577Z,42.79
2018-04-08T20:15:47.957Z,42.51
2018-04-08T20:18:15.340Z,42.72
2018-04-08T20:20:42.732Z,42.35
2018-04-08T20:23:10.122Z,42.37
2018-04-08T20:25:37.512Z,41.80
2018-04-08T20:28:04.893Z,41.68
2018-04-08T20:30:32.280Z,41.77
2018-04-08T20:32:59.719Z,41.82
2018-04-08T20:35:27.060Z,41.88
2018-04-08T20:37:54.471Z,42.00
2018-04-08T20:40:21.910Z,42.89
2018-04-08T20:42:49.244Z,43.07
2018-04-08T20:45:16.635Z,44.51
2018-04-08T20:47:44.019Z,45.60
2018-04-08T20:50:11.411Z,47.59
2018-04-08T20:52:38.796Z,47.02
2018-04-08T20:55:06.185Z,46.55
2018-04-08T20:57:33.572Z,47.67
2018-04-08T21:00:00.952Z,48.45
2018-04-08T21:02:28.342Z,48.60
2018-04-08T21:04:55.724Z,47.49
2018-04-08T21:07:23.130Z,47.33
2018-04-08T21:09:50.523Z,46.44
2018-04-08T21:12:17.908Z,46.40
2018-04-08T21:14:45.300Z,46.67
2018-04-08T21:17:12.684Z,46.94
2018-04-08T21:19:40.077Z,47.70
2018-04-08T21:22:07.466Z,47.43
2018-04-08T21:24:34.886Z,48.28
2018-04-08T21:27:02.266Z,47.21
2018-04-08T21:29:29.662Z,46.98
2018-04-08T21:31:57.061Z,46.88
2018-04-08T21:34:24.444Z,46.92
2018-04-08T21:36:51.836Z,47.05
2018-04-08T21:39:19.240Z,47.13
2018-04-08T21:41:46.640Z,46.79
2018-04-08T21:44:14.029Z,46.75
2018-04-08T21:46:41.411Z,47.00
2018-04-08T21:49:08.795Z,46.68
2018-04-08T21:51:36.589Z,47.32
2018-04-08T21:54:03.968Z,48.76
2018-04-08T21:56:31.368Z,49.87
2018-04-08T21:58:58.752Z,50.27
2018-04-08T22:01:26.201Z,50.45
2018-04-08T22:03:53.592Z,49.73
2018-04-08T22:06:21.015Z,49.45
2018-04-08T22:08:48.384Z,50.21
2018-04-08T22:11:15.776Z,50.22
2018-04-08T22:13:43.157Z,49.12
2018-04-08T22:16:10.578Z,48.67
2018-04-08T22:18:37.956Z,49.12
2018-04-08T22:21:05.364Z,49.50
2018-04-08T22:23:32.769Z,48.37
2018-04-08T22:26:00.152Z,48.34
2018-04-08T22:28:27.553Z,48.09
2018-04-08T22:30:54.941Z,47.94
2018-04-08T22:33:22.341Z,47.96
2018-04-08T22:35:49.744Z,47.89
2018-04-08T22:38:17.128Z,49.52
2018-04-08T22:40:44.553Z,50.35
2018-04-08T22:43:11.941Z,50.69
2018-04-08T22:45:39.357Z,50.44
2018-04-08T22:48:06.791Z,50.96
2018-04-08T22:50:34.136Z,51.01
2018-04-08T22:53:01.529Z,51.32
2018-04-08T22:55:28.912Z,50.02
2018-04-08T22:57:56.304Z,50.37
2018-04-08T23:00:25.600Z,50.65
2018-04-08T23:02:52.980Z,50.97
2018-04-08T23:05:20.368Z,51.20
2018-04-08T23:07:47.764Z,51.40
2018-04-08T23:10:15.164Z,51.42
2018-04-08T23:12:42.556Z,51.48
2018-04-08T23:15:09.948Z,51.83
2018-04-08T23:17:37.533Z,52.25
2018-04-08T23:20:04.929Z,52.55
2018-04-08T23:22:32.330Z,52.26
2018-04-08T23:24:59.728Z,52.44
2018-04-08T23:27:27.125Z,52.42
2018-04-08T23:29:54.533Z,51.68
2018-04-08T23:32:21.916Z,52.55
2018-04-08T23:34:49.311Z,52.59
2018-04-08T23:37:16.701Z,51.93
2018-04-08T23:39:44.168Z,51.58
2018-04-08T23:42:11.560Z,52.35
2018-04-08T23:44:38.945Z,52.28
2018-04-08T23:47:06.344Z,52.55
2018-04-08T23:49:33.740Z,50.30
2018-04-08T23:52:01.130Z,49.99
2018-04-08T23:54:28.536Z,50.00
2018-04-08T23:56:55.926Z,50.09
2018-04-08T23:59:23.338Z,51.12
